createdAt,value
2018-11-11T00:00:03.308Z,9.10
2018-11-11T00:02:30.821Z,9.10
2018-11-11T00:04:58.371Z,9.10
2018-11-11T00:07:25.937Z,9.20
2018-11-11T00:09:53.422Z,9.20
2018-11-11T00:12:21.061Z,9.30
2018-11-11T00:14:48.587Z,9.30
2018-11-11T00:17:16.154Z,9.30
2018-11-11T00:19:43.750Z,9.30
2018-11-11T00:22:11.291Z,9.30
2018-11-11T00:24:38.838Z,9.40
2018-11-11T00:27:06.482Z,9.40
2018-11-11T00:29:34.060Z,9.40
2018-11-11T00:32:01.575Z,9.40
2018-11-11T00:34:29.099Z,9.40
2018-11-11T00:36:56.597Z,9.40
2018-11-11T00:39:24.164Z,9.40
2018-11-11T00:41:51.660Z,9.30
2018-11-11T00:44:19.169Z,9.30
2018-11-11T00:46:46.657Z,9.30
2018-11-11T00:49:14.755Z,9.30
2018-11-11T00:51:42.280Z,9.20
2018-11-11T00:54:09.812Z,9.20
2018-11-11T00:56:37.347Z,9.20
2018-11-11T00:59:05.548Z,9.00
2018-11-11T01:01:33.096Z,9.00
2018-11-11T01:04:00.723Z,9.00
2018-11-11T01:06:28.257Z,9.00
2018-11-11T01:08:55.788Z,9.00
2018-11-11T01:11:23.300Z,9.00
2018-11-11T01:13:50.841Z,9.10
2018-11-11T01:16:18.389Z,9.10
2018-11-11T01:18:45.948Z,9.20
2018-11-11T01:21:16.748Z,9.20
2018-11-11T01:23:44.304Z,9.20
2018-11-11T01:26:11.844Z,9.30
2018-11-11T01:28:39.384Z,9.30
2018-11-11T01:31:07.072Z,9.40
2018-11-11T01:33:34.597Z,9.30
2018-11-11T01:36:02.093Z,9.30
2018-11-11T01:38:29.651Z,9.30
2018-11-11T01:40:57.210Z,9.30
2018-11-11T01:43:24.940Z,9.30
2018-11-11T01:45:52.416Z,9.20
2018-11-11T01:48:19.984Z,9.20
2018-11-11T01:50:47.530Z,9.20
2018-11-11T01:53:15.069Z,9.10
2018-11-11T01:55:42.594Z,9.10
2018-11-11T01:58:10.115Z,9.10
2018-11-11T02:00:37.704Z,9.10
2018-11-11T02:03:05.212Z,9.10
2018-11-11T02:05:32.763Z,9.10
2018-11-11T02:08:00.324Z,9.00
2018-11-11T02:10:27.848Z,9.10
2018-11-11T02:12:55.537Z,9.00
2018-11-11T02:15:23.067Z,9.00
2018-11-11T02:17:50.575Z,9.00
2018-11-11T02:20:19.232Z,9.00
2018-11-11T02:22:47.537Z,9.00
2018-11-11T02:25:15.054Z,9.00
2018-11-11T02:27:42.657Z,8.90
2018-11-11T02:30:12.064Z,8.90
2018-11-11T02:32:40.196Z,8.90
2018-11-11T02:35:07.800Z,8.90
2018-11-11T02:37:35.623Z,8.90
2018-11-11T02:40:03.250Z,8.80
2018-11-11T02:42:30.776Z,8.80
2018-11-11T02:44:58.300Z,8.90
2018-11-11T02:47:25.787Z,9.00
2018-11-11T02:49:53.343Z,8.90
2018-11-11T02:52:20.868Z,9.00
2018-11-11T02:54:48.430Z,9.00
2018-11-11T02:57:15.953Z,9.00
2018-11-11T02:59:43.512Z,9.00
2018-11-11T03:02:11.016Z,8.90
2018-11-11T03:04:38.839Z,8.90
2018-11-11T03:07:06.337Z,9.00
2018-11-11T03:09:33.859Z,9.00
2018-11-11T03:12:01.382Z,9.00
2018-11-11T03:14:28.923Z,9.00
2018-11-11T03:16:56.470Z,9.00
2018-11-11T03:19:24.006Z,8.90
2018-11-11T03:21:51.562Z,8.90
2018-11-11T03:24:19.077Z,8.90
2018-11-11T03:26:46.598Z,9.00
2018-11-11T03:29:14.121Z,9.00
2018-11-11T03:31:41.625Z,9.00
2018-11-11T03:34:09.137Z,9.00
2018-11-11T03:36:36.649Z,9.00
2018-11-11T03:39:05.847Z,9.00
2018-11-11T03:41:33.356Z,9.00
2018-11-11T03:44:00.901Z,9.00
2018-11-11T03:46:28.422Z,9.10
2018-11-11T03:48:55.929Z,9.00
2018-11-11T03:51:23.467Z,9.10
2018-11-11T03:53:51.002Z,9.00
2018-11-11T03:56:18.650Z,9.00
2018-11-11T03:58:46.260Z,9.00
2018-11-11T04:01:13.965Z,9.00
2018-11-11T04:03:41.562Z,9.10
2018-11-11T04:06:09.337Z,9.10
2018-11-11T04:08:36.875Z,8.90
2018-11-11T04:11:04.628Z,8.90
2018-11-11T04:13:32.184Z,9.00
2018-11-11T04:15:59.729Z,8.90
2018-11-11T04:18:27.304Z,8.90
2018-11-11T04:20:54.793Z,8.80
2018-11-11T04:23:22.494Z,8.90
2018-11-11T04:25:50.096Z,8.90
2018-11-11T04:28:17.593Z,8.90
2018-11-11T04:30:45.104Z,8.90
2018-11-11T04:33:12.636Z,8.80
2018-11-11T04:35:40.170Z,8.80
2018-11-11T04:38:07.656Z,8.70
2018-11-11T04:40:35.168Z,8.60
2018-11-11T04:43:02.654Z,8.60
2018-11-11T04:45:30.184Z,8.70
2018-11-11T04:47:57.696Z,8.70
2018-11-11T04:50:25.244Z,8.60
2018-11-11T04:52:52.787Z,8.70
2018-11-11T04:55:20.282Z,8.70
2018-11-11T04:57:48.001Z,8.70
2018-11-11T05:00:15.641Z,8.70
2018-11-11T05:02:43.428Z,8.70
2018-11-11T05:05:12.055Z,8.70
2018-11-11T05:07:39.918Z,8.80
2018-11-11T05:10:07.634Z,8.80
2018-11-11T05:12:35.537Z,8.70
2018-11-11T05:15:03.020Z,8.70
2018-11-11T05:17:30.612Z,8.70
2018-11-11T05:19:58.123Z,8.80
2018-11-11T05:22:25.665Z,8.70
2018-11-11T05:24:53.187Z,8.70
2018-11-11T05:27:20.785Z,8.70
2018-11-11T05:29:48.275Z,8.70
2018-11-11T05:32:15.876Z,8.70
2018-11-11T05:34:43.440Z,8.70
2018-11-11T05:37:10.981Z,8.70
2018-11-11T05:39:38.499Z,8.70
2018-11-11T05:42:06.072Z,8.70
2018-11-11T05:44:33.622Z,8.60
2018-11-11T05:47:01.165Z,8.70
2018-11-11T05:49:28.675Z,8.70
2018-11-11T05:51:56.252Z,8.60
2018-11-11T05:54:23.769Z,8.60
2018-11-11T05:56:51.320Z,8.60
2018-11-11T05:59:18.847Z,8.60
2018-11-11T06:01:46.373Z,8.70
2018-11-11T06:04:13.876Z,8.70
2018-11-11T06:06:41.390Z,8.70
2018-11-11T06:09:09.322Z,8.70
2018-11-11T06:11:37.068Z,8.70
2018-11-11T06:14:04.753Z,8.50
2018-11-11T06:16:32.253Z,8.50
2018-11-11T06:18:59.771Z,8.50
2018-11-11T06:21:27.364Z,8.60
2018-11-11T06:23:54.956Z,8.60
2018-11-11T06:26:22.437Z,8.60
2018-11-11T06:28:49.965Z,8.60
2018-11-11T06:31:17.531Z,8.70
2018-11-11T06:33:45.021Z,8.70
2018-11-11T06:36:12.559Z,8.80
2018-11-11T06:38:40.090Z,8.80
2018-11-11T06:41:07.697Z,8.80
2018-11-11T06:43:35.220Z,8.90
2018-11-11T06:46:02.859Z,8.80
2018-11-11T06:48:30.461Z,8.80
2018-11-11T06:50:58.026Z,8.80
2018-11-11T06:53:25.540Z,8.90
2018-11-11T06:55:53.053Z,8.90
2018-11-11T06:58:20.565Z,8.90
2018-11-11T07:00:48.080Z,9.00
2018-11-11T07:03:21.405Z,9.00
2018-11-11T07:05:48.902Z,9.10
2018-11-11T07:08:16.436Z,9.20
2018-11-11T07:10:43.951Z,9.20
2018-11-11T07:13:11.463Z,9.20
2018-11-11T07:15:39.007Z,9.30
2018-11-11T07:18:06.541Z,9.30
2018-11-11T07:20:34.065Z,9.30
2018-11-11T07:23:01.569Z,9.30
2018-11-11T07:25:29.104Z,9.30
2018-11-11T07:27:56.644Z,9.20
2018-11-11T07:30:24.212Z,9.20
2018-11-11T07:32:51.906Z,9.30
2018-11-11T07:35:19.420Z,9.30
2018-11-11T07:37:47.012Z,9.30
2018-11-11T07:40:15.576Z,9.30
2018-11-11T07:42:43.376Z,9.30
2018-11-11T07:45:10.883Z,9.40
2018-11-11T07:47:38.525Z,9.40
2018-11-11T07:50:09.091Z,9.40
2018-11-11T07:52:37.360Z,9.30
2018-11-11T07:55:06.160Z,9.30
2018-11-11T07:57:33.584Z,9.30
2018-11-11T08:00:01.143Z,9.30
2018-11-11T08:02:28.681Z,9.30
2018-11-11T08:04:56.335Z,9.20
2018-11-11T08:07:23.893Z,9.20
2018-11-11T08:09:51.415Z,9.20
2018-11-11T08:12:18.962Z,9.30
2018-11-11T08:14:46.546Z,9.20
2018-11-11T08:17:14.052Z,9.10
2018-11-11T08:19:41.623Z,9.20
2018-11-11T08:22:09.158Z,9.20
2018-11-11T08:24:36.704Z,9.30
2018-11-11T08:27:04.304Z,9.40
2018-11-11T08:29:31.813Z,9.50
2018-11-11T08:31:59.350Z,9.60
2018-11-11T08:34:26.890Z,9.60
2018-11-11T08:36:54.486Z,9.70
2018-11-11T08:39:21.997Z,9.70
2018-11-11T08:41:49.549Z,9.70
2018-11-11T08:44:17.133Z,9.80
2018-11-11T08:46:45.578Z,9.80
2018-11-11T08:49:13.785Z,9.70
2018-11-11T08:51:41.370Z,9.80
2018-11-11T08:54:08.908Z,9.90
2018-11-11T08:56:36.466Z,9.90
2018-11-11T08:59:04.198Z,10.00
2018-11-11T09:01:31.831Z,10.00
2018-11-11T09:03:59.487Z,10.20
2018-11-11T09:06:27.038Z,10.10
2018-11-11T09:08:54.631Z,10.20
2018-11-11T09:11:22.225Z,10.30
2018-11-11T09:13:50.030Z,10.40
2018-11-11T09:16:17.642Z,10.50
2018-11-11T09:18:45.204Z,10.40
2018-11-11T09:21:12.775Z,10.50
2018-11-11T09:23:40.363Z,10.40
2018-11-11T09:26:07.912Z,10.40
2018-11-11T09:28:35.438Z,10.30
2018-11-11T09:31:03.272Z,10.30
2018-11-11T09:33:32.927Z,10.20
2018-11-11T09:36:00.593Z,10.30
2018-11-11T09:38:28.243Z,10.40
2018-11-11T09:40:55.776Z,10.60
2018-11-11T09:43:23.299Z,10.60
2018-11-11T09:45:50.848Z,10.60
2018-11-11T09:48:18.377Z,10.60
2018-11-11T09:50:45.907Z,10.60
2018-11-11T09:53:13.437Z,10.70
2018-11-11T09:55:40.994Z,10.60
2018-11-11T09:58:08.542Z,10.70
2018-11-11T10:00:36.076Z,10.80
2018-11-11T10:03:09.056Z,10.70
2018-11-11T10:05:42.186Z,10.60
2018-11-11T10:08:15.350Z,10.70
2018-11-11T10:10:51.345Z,10.70
2018-11-11T10:13:28.214Z,10.60
2018-11-11T10:15:59.905Z,10.50
2018-11-11T10:18:31.697Z,10.60
2018-11-11T10:21:04.161Z,10.50
2018-11-11T10:23:37.106Z,10.60
2018-11-11T10:26:12.031Z,10.50
2018-11-11T10:30:48.531Z,10.60
2018-11-11T10:33:55.420Z,10.80
2018-11-11T10:36:32.105Z,10.90
2018-11-11T10:39:04.743Z,10.80
2018-11-11T10:41:38.482Z,10.90
2018-11-11T10:44:10.421Z,10.90
2018-11-11T10:46:43.145Z,10.90
2018-11-11T10:49:12.717Z,10.90
2018-11-11T10:51:40.223Z,11.00
2018-11-11T10:54:07.881Z,11.00
2018-11-11T10:56:35.407Z,11.00
2018-11-11T10:59:03.216Z,10.90
2018-11-11T11:01:36.344Z,11.00
2018-11-11T11:04:03.945Z,11.00
2018-11-11T11:06:37.064Z,11.00
2018-11-11T11:09:07.953Z,11.00
2018-11-11T11:11:35.520Z,11.00
2018-11-11T11:14:03.270Z,11.10
2018-11-11T11:16:30.830Z,10.90
2018-11-11T11:18:58.423Z,10.80
2018-11-11T11:21:26.103Z,10.80
2018-11-11T11:23:53.638Z,10.70
2018-11-11T11:26:21.210Z,10.50
2018-11-11T11:28:48.782Z,10.50
2018-11-11T11:31:16.472Z,10.40
2018-11-11T11:33:44.035Z,10.50
2018-11-11T11:36:11.617Z,10.50
2018-11-11T11:38:39.188Z,10.50
2018-11-11T11:41:06.740Z,10.50
2018-11-11T11:43:34.330Z,10.50
2018-11-11T11:46:01.903Z,10.60
2018-11-11T11:48:29.505Z,10.60
2018-11-11T11:50:57.155Z,10.60
2018-11-11T11:53:24.791Z,10.60
2018-11-11T11:55:52.316Z,10.60
2018-11-11T11:58:28.188Z,10.60
2018-11-11T12:00:55.825Z,10.60
2018-11-11T12:03:23.358Z,10.60
2018-11-11T12:05:50.870Z,10.60
2018-11-11T12:08:18.536Z,10.60
2018-11-11T12:10:46.087Z,10.50
2018-11-11T12:13:14.346Z,10.40
2018-11-11T12:15:42.553Z,10.40
2018-11-11T12:18:10.101Z,10.40
2018-11-11T12:20:37.983Z,10.40
2018-11-11T12:23:05.870Z,10.30
2018-11-11T12:25:33.409Z,10.20
2018-11-11T12:28:00.970Z,10.20
2018-11-11T12:30:28.591Z,10.20
2018-11-11T12:32:56.089Z,10.30
2018-11-11T12:35:23.582Z,10.30
2018-11-11T12:37:51.076Z,10.50
2018-11-11T12:40:18.826Z,10.60
2018-11-11T12:42:46.189Z,10.70
2018-11-11T12:45:14.010Z,10.90
2018-11-11T12:47:41.828Z,11.10
2018-11-11T12:50:10.169Z,11.40
2018-11-11T12:52:38.062Z,11.50
2018-11-11T12:55:05.794Z,11.60
2018-11-11T12:57:33.319Z,11.60
2018-11-11T13:00:01.570Z,11.60
2018-11-11T13:02:29.113Z,11.70
2018-11-11T13:04:56.902Z,11.70
2018-11-11T13:07:24.803Z,11.70
2018-11-11T13:09:53.505Z,11.70
2018-11-11T13:12:21.238Z,11.90
2018-11-11T13:14:48.618Z,12.00
2018-11-11T13:17:16.593Z,12.10
2018-11-11T13:19:44.276Z,12.30
2018-11-11T13:22:11.972Z,12.40
2018-11-11T13:24:39.703Z,12.70
2018-11-11T13:27:07.436Z,12.70
2018-11-11T13:29:34.967Z,12.80
2018-11-11T13:32:02.621Z,12.80
2018-11-11T13:34:30.313Z,12.70
2018-11-11T13:36:57.932Z,12.50
2018-11-11T13:39:25.481Z,12.40
2018-11-11T13:41:52.993Z,12.40
2018-11-11T13:44:20.550Z,12.20
2018-11-11T13:46:48.149Z,12.10
2018-11-11T13:49:15.733Z,12.10
2018-11-11T13:51:43.329Z,12.20
2018-11-11T13:54:10.939Z,12.10
2018-11-11T13:56:38.920Z,12.00
2018-11-11T13:59:06.546Z,12.00
2018-11-11T14:01:34.196Z,11.90
2018-11-11T14:04:01.730Z,11.90
2018-11-11T14:06:29.292Z,11.90
2018-11-11T14:08:56.968Z,12.00
2018-11-11T14:11:24.554Z,12.00
2018-11-11T14:13:52.172Z,11.90
2018-11-11T14:16:19.699Z,11.90
2018-11-11T14:18:47.509Z,11.90
2018-11-11T14:21:15.188Z,12.00
2018-11-11T14:23:42.714Z,11.90
2018-11-11T14:26:10.405Z,11.80
2018-11-11T14:28:37.946Z,11.80
2018-11-11T14:31:05.476Z,11.70
2018-11-11T14:33:33.013Z,11.70
2018-11-11T14:36:00.720Z,11.70
2018-11-11T14:38:28.291Z,11.70
2018-11-11T14:40:55.857Z,11.60
2018-11-11T14:43:23.412Z,11.50
2018-11-11T14:45:51.070Z,11.40
2018-11-11T14:48:18.684Z,11.40
2018-11-11T14:50:46.320Z,11.40
2018-11-11T14:53:13.848Z,11.30
2018-11-11T14:55:41.466Z,11.20
2018-11-11T14:58:09.121Z,11.20
2018-11-11T15:00:36.759Z,11.10
2018-11-11T15:03:06.597Z,11.00
2018-11-11T15:05:34.463Z,11.00
2018-11-11T15:08:02.058Z,11.00
2018-11-11T15:10:29.727Z,10.90
2018-11-11T15:12:57.293Z,10.90
2018-11-11T15:15:25.296Z,10.90
2018-11-11T15:17:53.622Z,10.90
2018-11-11T15:20:21.196Z,10.80
2018-11-11T15:22:48.848Z,10.90
2018-11-11T15:25:17.768Z,10.80
2018-11-11T15:27:45.804Z,10.80
2018-11-11T15:30:14.680Z,10.70
2018-11-11T15:32:42.674Z,10.80
2018-11-11T15:35:10.237Z,10.80
2018-11-11T15:37:38.203Z,10.70
2018-11-11T15:40:07.153Z,10.70
2018-11-11T15:42:34.848Z,10.70
2018-11-11T15:45:02.432Z,10.60
2018-11-11T15:47:29.969Z,10.60
2018-11-11T15:49:57.646Z,10.60
2018-11-11T15:52:25.802Z,10.60
2018-11-11T15:54:53.241Z,10.60
2018-11-11T15:57:20.834Z,10.70
2018-11-11T15:59:48.409Z,10.60
2018-11-11T16:02:16.056Z,10.60
2018-11-11T16:04:43.641Z,10.60
2018-11-11T16:07:11.225Z,10.50
2018-11-11T16:09:38.738Z,10.50
2018-11-11T16:12:06.277Z,10.50
2018-11-11T16:14:33.835Z,10.40
2018-11-11T16:17:01.602Z,10.40
2018-11-11T16:19:29.195Z,10.40
2018-11-11T16:21:56.716Z,10.40
2018-11-11T16:24:24.248Z,10.30
2018-11-11T16:26:51.799Z,10.30
2018-11-11T16:29:19.345Z,10.40
2018-11-11T16:31:46.950Z,10.40
2018-11-11T16:34:14.549Z,10.40
2018-11-11T16:36:42.236Z,10.40
2018-11-11T16:39:11.461Z,10.40
2018-11-11T16:41:39.399Z,10.40
2018-11-11T16:44:07.018Z,10.40
2018-11-11T16:46:35.751Z,10.50
2018-11-11T16:49:03.355Z,10.50
2018-11-11T16:51:30.942Z,10.50
2018-11-11T16:53:58.674Z,10.50
2018-11-11T16:56:26.253Z,10.50
2018-11-11T16:58:53.847Z,10.50
2018-11-11T17:01:21.370Z,10.40
2018-11-11T17:03:48.908Z,10.30
2018-11-11T17:06:16.698Z,10.20
2018-11-11T17:08:44.240Z,10.20
2018-11-11T17:11:11.793Z,10.20
2018-11-11T17:13:39.365Z,10.10
2018-11-11T17:16:07.005Z,10.10
2018-11-11T17:18:36.733Z,10.20
2018-11-11T17:21:04.345Z,10.10
2018-11-11T17:23:31.868Z,10.00
2018-11-11T17:25:59.828Z,10.00
2018-11-11T17:28:27.385Z,10.00
2018-11-11T17:30:54.927Z,10.00
2018-11-11T17:33:22.546Z,10.10
2018-11-11T17:35:50.179Z,10.10
2018-11-11T17:38:17.856Z,10.10
2018-11-11T17:40:45.427Z,10.10
2018-11-11T17:43:12.992Z,10.20
2018-11-11T17:45:40.511Z,10.10
2018-11-11T17:48:08.148Z,10.10
2018-11-11T17:50:37.651Z,10.10
2018-11-11T17:53:07.521Z,10.10
2018-11-11T17:55:35.268Z,10.20
2018-11-11T17:58:02.762Z,10.20
2018-11-11T18:00:31.217Z,10.20
2018-11-11T18:02:59.550Z,10.20
2018-11-11T18:05:28.162Z,10.20
2018-11-11T18:07:55.733Z,10.20
2018-11-11T18:10:24.235Z,10.20
2018-11-11T18:12:51.813Z,10.20
2018-11-11T18:15:21.032Z,10.30
2018-11-11T18:17:49.483Z,10.30
2018-11-11T18:20:19.648Z,10.40
2018-11-11T18:22:47.785Z,10.40
2018-11-11T18:25:15.670Z,10.50
2018-11-11T18:27:43.274Z,10.60
2018-11-11T18:30:14.449Z,10.60
2018-11-11T18:32:42.022Z,10.60
2018-11-11T18:35:10.661Z,10.70
2018-11-11T18:37:38.422Z,10.70
2018-11-11T18:40:06.269Z,10.70
2018-11-11T18:42:33.865Z,10.70
2018-11-11T18:45:01.483Z,10.80
2018-11-11T18:47:29.054Z,10.70
2018-11-11T18:49:56.589Z,10.60
2018-11-11T18:52:24.200Z,10.60
2018-11-11T18:54:53.427Z,10.60
2018-11-11T18:57:21.422Z,10.50
2018-11-11T18:59:48.847Z,10.40
2018-11-11T19:02:16.890Z,10.30
2018-11-11T19:04:45.074Z,10.40
2018-11-11T19:07:12.627Z,10.40
2018-11-11T19:09:41.176Z,10.40
2018-11-11T19:12:08.774Z,10.50
2018-11-11T19:14:36.340Z,10.50
2018-11-11T19:17:04.015Z,10.60
2018-11-11T19:19:31.599Z,10.60
2018-11-11T19:21:59.226Z,10.60
2018-11-11T19:24:26.928Z,10.60
2018-11-11T19:26:54.619Z,10.60
2018-11-11T19:29:22.156Z,10.50
2018-11-11T19:31:49.745Z,10.50
2018-11-11T19:34:17.444Z,10.50
2018-11-11T19:36:45.080Z,10.40
2018-11-11T19:39:13.640Z,10.30
2018-11-11T19:41:41.918Z,10.30
2018-11-11T19:44:10.426Z,10.20
2018-11-11T19:46:38.067Z,10.20
2018-11-11T19:49:06.612Z,10.10
2018-11-11T19:51:34.247Z,10.10
2018-11-11T19:54:02.693Z,10.20
2018-11-11T19:56:30.278Z,10.20
2018-11-11T19:58:57.876Z,10.20
2018-11-11T20:01:25.956Z,10.20
2018-11-11T20:03:53.530Z,10.30
2018-11-11T20:06:21.223Z,10.20
2018-11-11T20:08:48.895Z,10.20
2018-11-11T20:11:16.536Z,10.20
2018-11-11T20:13:44.133Z,10.20
2018-11-11T20:16:12.088Z,10.20
2018-11-11T20:18:41.369Z,10.20
2018-11-11T20:21:09.812Z,10.20
2018-11-11T20:23:37.464Z,10.10
2018-11-11T20:26:06.441Z,10.10
2018-11-11T20:28:34.015Z,10.10
2018-11-11T20:31:02.372Z,10.20
2018-11-11T20:33:30.543Z,10.10
2018-11-11T20:35:58.160Z,10.10
2018-11-11T20:38:25.717Z,10.10
2018-11-11T20:40:53.250Z,10.00
2018-11-11T20:43:21.203Z,10.00
2018-11-11T20:45:48.748Z,9.90
2018-11-11T20:48:17.263Z,9.90
2018-11-11T20:50:44.937Z,9.90
2018-11-11T20:53:12.482Z,9.90
2018-11-11T20:55:40.140Z,9.90
2018-11-11T20:58:07.652Z,9.90
2018-11-11T21:00:37.458Z,9.90
2018-11-11T21:03:05.321Z,9.90
2018-11-11T21:05:32.886Z,9.90
2018-11-11T21:08:00.553Z,9.90
2018-11-11T21:10:28.866Z,10.00
2018-11-11T21:12:56.762Z,10.10
2018-11-11T21:15:25.524Z,10.10
2018-11-11T21:17:53.336Z,10.10
2018-11-11T21:20:25.921Z,10.20
2018-11-11T21:22:53.507Z,10.20
2018-11-11T21:25:21.116Z,10.30
2018-11-11T21:27:49.579Z,10.40
2018-11-11T21:30:19.595Z,10.40
2018-11-11T21:32:47.622Z,10.40
2018-11-11T21:35:15.192Z,10.40
2018-11-11T21:37:43.052Z,10.30
2018-11-11T21:40:15.918Z,10.30
2018-11-11T21:42:44.267Z,10.40
2018-11-11T21:45:13.057Z,10.30
2018-11-11T21:47:40.992Z,10.40
2018-11-11T21:50:09.793Z,10.50
2018-11-11T21:52:37.378Z,10.50
2018-11-11T21:55:05.394Z,10.60
2018-11-11T21:57:32.965Z,10.60
2018-11-11T22:00:00.514Z,10.80
2018-11-11T22:02:28.084Z,10.80
2018-11-11T22:04:55.801Z,10.90
2018-11-11T22:07:23.386Z,10.80
2018-11-11T22:09:50.975Z,10.90
2018-11-11T22:12:18.517Z,10.90
2018-11-11T22:14:46.357Z,10.90
2018-11-11T22:17:13.861Z,10.90
2018-11-11T22:19:41.407Z,10.90
2018-11-11T22:22:08.982Z,11.00
2018-11-11T22:24:36.462Z,11.00
2018-11-11T22:27:04.051Z,11.00
2018-11-11T22:29:31.595Z,10.90
2018-11-11T22:31:59.166Z,10.80
2018-11-11T22:34:26.745Z,10.90
2018-11-11T22:36:54.318Z,10.90
2018-11-11T22:39:21.850Z,10.90
2018-11-11T22:41:49.740Z,10.80
2018-11-11T22:44:17.246Z,10.80
2018-11-11T22:46:44.787Z,10.80
2018-11-11T22:49:12.288Z,10.90
2018-11-11T22:51:39.787Z,10.90
2018-11-11T22:54:07.334Z,10.90
2018-11-11T22:56:34.847Z,10.80
2018-11-11T22:59:02.365Z,10.90
2018-11-11T23:01:29.916Z,10.90
2018-11-11T23:03:57.436Z,10.90
2018-11-11T23:06:24.932Z,10.90
2018-11-11T23:08:52.542Z,10.80
2018-11-11T23:11:20.008Z,10.90
2018-11-11T23:13:47.599Z,10.90
2018-11-11T23:16:15.187Z,10.90
2018-11-11T23:18:42.656Z,10.90
2018-11-11T23:21:10.213Z,10.90
2018-11-11T23:23:37.732Z,10.90
2018-11-11T23:26:05.541Z,11.00
2018-11-11T23:28:33.134Z,11.00
2018-11-11T23:31:00.561Z,11.10
2018-11-11T23:33:28.068Z,11.00
2018-11-11T23:35:55.568Z,11.00
2018-11-11T23:38:23.112Z,11.00
2018-11-11T23:40:50.687Z,11.00
2018-11-11T23:43:18.209Z,11.00
2018-11-11T23:45:45.730Z,11.00
2018-11-11T23:48:13.297Z,11.00
2018-11-11T23:50:40.812Z,11.00
2018-11-11T23:53:08.361Z,11.00
2018-11-11T23:55:35.893Z,11.00
2018-11-11T23:58:03.424Z,10.90
